Time;durP1;ratioP1;P1;durP2;ratioP2;P2;SDS_P1;SDS_P2;PMS_P1;PMS_P2;Temp;Humidity;BMP_temperature;BMP_pressure;BME280_temperature;BME280_humidity;BME280_pressure;Samples;Min_cycle;Max_cycle;Signal;HPM_P1;HPM_P2
2022/05/17 00:01:43;;;;;;;0.00;0.00;;;20.60;91.80;;;;;;5066676;28;20012;-72
2022/05/17 00:04:09;;;;;;;0.00;0.00;;;20.60;92.10;;;;;;5059044;28;20037;-72
2022/05/17 00:06:35;;;;;;;0.00;0.00;;;20.50;92.10;;;;;;5058857;28;20224;-73
2022/05/17 00:09:01;;;;;;;0.00;0.00;;;20.40;92.10;;;;;;5058796;28;20076;-73
2022/05/17 00:11:28;;;;;;;0.00;0.00;;;20.40;92.30;;;;;;5059858;28;20028;-74
2022/05/17 00:13:54;;;;;;;0.00;0.00;;;20.40;92.00;;;;;;5039881;28;20037;-72
2022/05/17 00:16:20;;;;;;;0.00;0.00;;;20.40;92.20;;;;;;5064714;28;20059;-72
2022/05/17 00:18:46;;;;;;;0.00;0.00;;;20.40;92.00;;;;;;5059338;28;20070;-72
2022/05/17 00:21:12;;;;;;;0.00;0.00;;;20.40;92.20;;;;;;5057854;28;20326;-72
2022/05/17 00:23:38;;;;;;;0.00;0.00;;;20.40;92.20;;;;;;5058553;28;20044;-72
2022/05/17 00:26:06;;;;;;;0.00;0.00;;;20.40;92.30;;;;;;5044440;28;20023;-73
2022/05/17 00:28:33;;;;;;;0.00;0.00;;;20.30;92.20;;;;;;5044240;28;20028;-72
2022/05/17 00:31:00;;;;;;;0.00;0.00;;;20.30;91.80;;;;;;5044190;28;20213;-72
2022/05/17 00:33:27;;;;;;;0.00;0.00;;;20.30;91.60;;;;;;5060567;28;20092;-72
2022/05/17 00:35:53;;;;;;;0.00;0.00;;;20.30;92.00;;;;;;5065009;28;20017;-73
2022/05/17 00:38:19;;;;;;;0.00;0.00;;;20.30;92.10;;;;;;5064182;28;20070;-73
2022/05/17 00:40:45;;;;;;;0.00;0.00;;;20.30;92.00;;;;;;5045686;28;20035;-73
2022/05/17 00:43:21;;;;;;;0.00;0.00;;;20.30;92.00;;;;;;5058839;28;20031;-72
2022/05/17 00:45:49;;;;;;;0.00;0.00;;;20.30;91.80;;;;;;5044003;28;20021;-72
2022/05/17 00:48:17;;;;;;;0.00;0.00;;;20.30;92.10;;;;;;5058640;28;20025;-73
2022/05/17 00:50:46;;;;;;;0.00;0.00;;;20.30;91.90;;;;;;5059770;28;20033;-71
2022/05/17 00:53:24;;;;;;;0.00;0.00;;;20.30;92.00;;;;;;5063538;28;20049;-73
2022/05/17 00:55:59;;;;;;;0.00;0.00;;;20.30;91.50;;;;;;5075514;28;20028;-72
2022/05/17 00:58:30;;;;;;;0.00;0.00;;;20.30;91.90;;;;;;5084847;28;20142;-72
2022/05/17 01:01:02;;;;;;;0.00;0.00;;;20.30;91.60;;;;;;5081341;28;20020;-72
2022/05/17 01:03:40;;;;;;;0.00;0.00;;;20.30;92.00;;;;;;5076433;28;20117;-74
2022/05/17 01:06:06;;;;;;;;;;;20.30;91.60;;;;;;5077886;28;20104;-73
2022/05/17 01:08:32;;;;;;;0.00;0.00;;;20.30;91.90;;;;;;5084089;28;19900;-73
2022/05/17 01:10:58;;;;;;;0.00;0.00;;;20.30;91.70;;;;;;5075891;28;20391;-72
2022/05/17 01:16:09;;;;;;;0.00;0.00;;;20.30;91.70;;;;;;5078154;28;20378;-72
2022/05/17 01:18:39;;;;;;;0.00;0.00;;;20.20;91.40;;;;;;5081129;28;20024;-72
2022/05/17 01:21:06;;;;;;;0.00;0.00;;;20.20;91.60;;;;;;5082128;28;20027;-73
2022/05/17 01:23:32;;;;;;;0.00;0.00;;;20.20;91.70;;;;;;5077923;28;20029;-73
2022/05/17 01:25:58;;;;;;;0.00;0.00;;;20.20;92.60;;;;;;5081032;28;20020;-73
2022/05/17 01:28:31;;;;;;;0.00;0.00;;;20.20;92.30;;;;;;5080174;28;20062;-71
2022/05/17 01:31:03;;;;;;;0.00;0.00;;;20.20;92.40;;;;;;5085020;28;20021;-72
2022/05/17 01:33:32;;;;;;;0.00;0.00;;;20.20;92.70;;;;;;5073856;28;20064;-71
2022/05/17 01:35:59;;;;;;;0.00;0.00;;;20.20;92.40;;;;;;5075716;28;20312;-73
2022/05/17 01:38:25;;;;;;;0.00;0.00;;;20.20;92.60;;;;;;5075902;28;20076;-72
2022/05/17 01:40:51;;;;;;;0.00;0.00;;;20.20;92.70;;;;;;5075202;28;20012;-73
2022/05/17 01:43:17;;;;;;;0.00;0.00;;;20.20;92.50;;;;;;5079015;28;20032;-72
2022/05/17 01:45:42;;;;;;;0.00;0.00;;;20.20;93.10;;;;;;5075654;28;20021;-72
2022/05/17 01:48:08;;;;;;;0.00;0.00;;;20.10;92.70;;;;;;5072491;28;20033;-73
2022/05/17 01:50:34;;;;;;;0.00;0.00;;;20.10;92.90;;;;;;5079220;28;20078;-72
2022/05/17 01:53:00;;;;;;;0.00;0.00;;;20.10;92.80;;;;;;5072991;28;20056;-71
2022/05/17 01:55:26;;;;;;;0.00;0.00;;;20.10;92.50;;;;;;5073176;28;20030;-71
2022/05/17 01:57:52;;;;;;;0.00;0.00;;;20.10;92.90;;;;;;5078636;28;20322;-71
2022/05/17 02:00:20;;;;;;;0.00;0.00;;;20.10;92.60;;;;;;5077802;28;20299;-72
2022/05/17 02:02:45;;;;;;;0.00;0.00;;;20.10;93.10;;;;;;5082092;28;20279;-72
2022/05/17 02:05:11;;;;;;;0.00;0.00;;;20.00;93.90;;;;;;5074434;28;20091;-73
2022/05/17 02:07:37;;;;;;;0.00;0.00;;;20.00;93.90;;;;;;5075767;28;20492;-73
2022/05/17 02:10:04;;;;;;;0.00;0.00;;;20.00;94.80;;;;;;5076635;28;20028;-73
2022/05/17 02:12:30;;;;;;;0.00;0.00;;;20.00;95.00;;;;;;5081493;28;20046;-72
2022/05/17 02:14:55;;;;;;;0.00;0.00;;;20.00;95.10;;;;;;5079072;28;20048;-72
2022/05/17 02:17:22;;;;;;;0.00;0.00;;;20.00;95.30;;;;;;5073344;28;20225;-73
2022/05/17 02:19:48;;;;;;;0.00;0.00;;;19.90;95.60;;;;;;5074897;28;20094;-73
2022/05/17 02:22:14;;;;;;;0.00;0.00;;;19.90;95.20;;;;;;5077298;28;20024;-72
2022/05/17 02:24:39;;;;;;;0.00;0.00;;;19.80;95.20;;;;;;5077984;28;20299;-72
2022/05/17 02:27:05;;;;;;;0.00;0.00;;;19.80;94.90;;;;;;5075581;28;20028;-73
2022/05/17 02:29:31;;;;;;;0.00;0.00;;;19.80;95.00;;;;;;5073717;28;20027;-74
2022/05/17 02:31:58;;;;;;;0.00;0.00;;;19.70;94.80;;;;;;5075785;28;20024;-73
2022/05/17 02:34:24;;;;;;;0.00;0.00;;;19.70;95.00;;;;;;5075808;28;20081;-71
2022/05/17 02:36:49;;;;;;;0.00;0.00;;;19.70;94.90;;;;;;5074817;28;20021;-72
2022/05/17 02:39:15;;;;;;;0.00;0.00;;;19.70;94.80;;;;;;5074465;28;20304;-72
2022/05/17 02:41:41;;;;;;;0.00;0.00;;;19.70;94.50;;;;;;5074474;28;20031;-72
2022/05/17 02:44:07;;;;;;;0.00;0.00;;;19.70;94.30;;;;;;5072868;28;20043;-73
2022/05/17 02:46:33;;;;;;;0.00;0.00;;;19.70;94.30;;;;;;5073855;28;20304;-72
2022/05/17 02:49:02;;;;;;;0.00;0.00;;;19.70;94.10;;;;;;5076508;28;20036;-76
2022/05/17 02:51:28;;;;;;;0.00;0.00;;;19.70;94.00;;;;;;5077330;28;20084;-75
2022/05/17 02:53:54;;;;;;;0.00;0.00;;;19.70;94.40;;;;;;5077607;28;20048;-83
2022/05/17 02:56:20;;;;;;;0.00;0.00;;;19.70;94.30;;;;;;5077762;28;20032;-77
2022/05/17 02:58:45;;;;;;;0.00;0.00;;;19.70;94.50;;;;;;5078183;28;20117;-83
2022/05/17 03:01:11;;;;;;;0.00;0.00;;;19.70;94.20;;;;;;5078544;28;20027;-79
2022/05/17 03:03:41;;;;;;;0.00;0.00;;;19.70;93.90;;;;;;5077934;28;20382;-77
2022/05/17 03:06:09;;;;;;;0.00;0.00;;;19.70;93.90;;;;;;5078717;28;20016;-76
2022/05/17 03:08:34;;;;;;;0.00;0.00;;;19.70;94.10;;;;;;5077534;28;20051;-83
2022/05/17 03:11:01;;;;;;;0.00;0.00;;;19.70;93.70;;;;;;5061044;28;20416;-81
2022/05/17 03:13:27;;;;;;;0.00;0.00;;;19.80;93.90;;;;;;5076786;28;20029;-79
2022/05/17 03:15:53;;;;;;;0.00;0.00;;;19.70;94.10;;;;;;5082418;28;20020;-83
2022/05/17 03:18:19;;;;;;;0.00;0.00;;;19.70;94.00;;;;;;5081929;28;20070;-81
2022/05/17 03:20:47;;;;;;;0.00;0.00;;;19.70;94.50;;;;;;5081504;28;20017;-78
2022/05/17 03:23:13;;;;;;;0.00;0.00;;;19.70;94.50;;;;;;5080920;28;20070;-82
2022/05/17 03:25:39;;;;;;;0.00;0.00;;;19.70;95.30;;;;;;5081188;28;20028;-78
2022/05/17 03:28:05;;;;;;;0.00;0.00;;;19.70;96.50;;;;;;5081972;28;20078;-82
2022/05/17 03:30:30;;;;;;;0.00;0.00;;;19.60;97.60;;;;;;5082762;28;20029;-80
2022/05/17 03:32:56;;;;;;;0.00;0.00;;;19.50;98.10;;;;;;5082522;28;20354;-83
2022/05/17 03:35:22;;;;;;;0.00;0.00;;;19.40;98.90;;;;;;5082020;28;20292;-82
2022/05/17 03:37:48;;;;;;;0.00;0.00;;;19.30;99.30;;;;;;5083168;28;20096;-75
2022/05/17 03:40:14;;;;;;;0.00;0.00;;;19.20;99.90;;;;;;5082034;28;20351;-83
2022/05/17 03:42:40;;;;;;;0.00;0.00;;;19.00;99.90;;;;;;5082103;28;20363;-78
2022/05/17 03:45:07;;;;;;;0.00;0.00;;;19.00;99.90;;;;;;5081036;28;20047;-85
2022/05/17 03:47:33;;;;;;;0.00;0.00;;;18.90;99.90;;;;;;5082691;28;20027;-85
2022/05/17 03:49:59;;;;;;;0.00;0.00;;;18.90;99.90;;;;;;5080755;28;20027;-84
2022/05/17 03:52:26;;;;;;;0.00;0.00;;;18.80;99.90;;;;;;5077334;28;20068;-78
2022/05/17 03:54:56;;;;;;;0.00;0.00;;;18.70;99.90;;;;;;5061863;28;20028;-77
2022/05/17 03:57:23;;;;;;;0.00;0.00;;;18.70;99.90;;;;;;5061951;28;20311;-83
2022/05/17 03:59:49;;;;;;;0.00;0.00;;;18.60;99.90;;;;;;5045512;28;20185;-78
2022/05/17 04:02:14;;;;;;;0.00;0.00;;;18.60;99.90;;;;;;5063487;28;20362;-83
2022/05/17 04:04:40;;;;;;;0.00;0.00;;;18.60;99.90;;;;;;5062992;28;20028;-79
2022/05/17 04:07:06;;;;;;;0.00;0.00;;;18.60;99.90;;;;;;5044046;28;20039;-83
2022/05/17 04:09:32;;;;;;;0.00;0.00;;;18.60;99.90;;;;;;5061739;28;20021;-83
2022/05/17 04:11:58;;;;;;;0.00;0.00;;;18.60;99.90;;;;;;5043604;28;20040;-76
2022/05/17 04:14:23;;;;;;;0.00;0.00;;;18.60;99.90;;;;;;5062092;28;20036;-84
2022/05/17 04:16:50;;;;;;;0.00;0.00;;;18.60;99.90;;;;;;5043840;28;20204;-82
2022/05/17 04:19:17;;;;;;;0.00;0.00;;;18.60;99.90;;;;;;5043607;28;20027;-84
2022/05/17 04:21:43;;;;;;;0.00;0.00;;;18.60;99.90;;;;;;5044356;28;20036;-84
2022/05/17 04:24:10;;;;;;;0.00;0.00;;;18.50;99.90;;;;;;5043780;28;20051;-84
2022/05/17 04:26:37;;;;;;;0.00;0.00;;;18.50;99.90;;;;;;5044170;28;20017;-83
2022/05/17 04:29:04;;;;;;;0.00;0.00;;;18.50;99.90;;;;;;5061312;28;20021;-85
2022/05/17 04:31:30;;;;;;;0.00;0.00;;;18.50;99.90;;;;;;5043668;28;20017;-84
2022/05/17 04:33:56;;;;;;;0.00;0.00;;;18.50;99.90;;;;;;5061493;28;20104;-79
2022/05/17 04:36:22;;;;;;;0.00;0.00;;;18.50;99.90;;;;;;5042773;28;20045;-82
2022/05/17 04:38:48;;;;;;;0.00;0.00;;;18.50;99.90;;;;;;5062299;28;20020;-75
2022/05/17 04:41:14;;;;;;;0.00;0.00;;;18.50;99.90;;;;;;5044420;28;20216;-85
2022/05/17 04:43:40;;;;;;;0.00;0.00;;;18.50;99.90;;;;;;5044822;28;20025;-84
2022/05/17 04:46:07;;;;;;;0.00;0.00;;;18.50;99.90;;;;;;5062085;28;20028;-81
2022/05/17 04:48:33;;;;;;;0.00;0.00;;;18.50;99.90;;;;;;5061820;28;20017;-81
2022/05/17 04:50:59;;;;;;;0.00;0.00;;;18.50;99.90;;;;;;5060889;28;20040;-83
2022/05/17 04:53:24;;;;;;;0.00;0.00;;;18.50;99.90;;;;;;5060938;28;20045;-83
2022/05/17 04:55:50;;;;;;;0.00;0.00;;;18.50;99.90;;;;;;5043350;28;20296;-82
2022/05/17 04:58:16;;;;;;;0.00;0.00;;;18.50;99.90;;;;;;5060360;28;20020;-81
2022/05/17 05:00:42;;;;;;;0.00;0.00;;;18.50;99.90;;;;;;5059964;28;20017;-83
2022/05/17 05:03:08;;;;;;;0.00;0.00;;;18.50;99.90;;;;;;5059700;28;20344;-76
2022/05/17 05:05:33;;;;;;;0.00;0.00;;;18.50;99.90;;;;;;5060941;28;20017;-81
2022/05/17 05:07:59;;;;;;;0.00;0.00;;;18.50;99.90;;;;;;5042670;28;20027;-89
2022/05/17 05:10:26;;;;;;;0.00;0.00;;;18.50;99.90;;;;;;5046287;28;20021;-85
2022/05/17 05:12:52;;;;;;;0.00;0.00;;;18.40;99.90;;;;;;5062420;28;20032;-79
2022/05/17 05:15:18;;;;;;;0.00;0.00;;;18.40;99.90;;;;;;5043060;28;20197;-77
2022/05/17 05:17:44;;;;;;;0.00;0.00;;;18.40;99.90;;;;;;5043862;28;20062;-88
2022/05/17 05:20:13;;;;;;;0.00;0.00;;;18.50;99.90;;;;;;5043836;28;20017;-89
2022/05/17 05:22:39;;;;;;;0.00;0.00;;;18.40;99.90;;;;;;5044186;28;20243;-86
2022/05/17 05:25:06;;;;;;;0.00;0.00;;;18.40;99.90;;;;;;5043200;28;20017;-86
2022/05/17 05:27:33;;;;;;;0.00;0.00;;;18.50;99.90;;;;;;5061827;28;20067;-84
2022/05/17 05:30:00;;;;;;;0.00;0.00;;;18.50;99.90;;;;;;5060314;28;20292;-82
2022/05/17 05:32:25;;;;;;;0.00;0.00;;;18.40;99.90;;;;;;5043474;28;20025;-86
2022/05/17 05:34:51;;;;;;;0.00;0.00;;;18.50;99.90;;;;;;5046464;28;20028;-87
2022/05/17 05:37:17;;;;;;;0.00;0.00;;;18.50;99.90;;;;;;5042827;28;20426;-80
2022/05/17 05:39:43;;;;;;;0.00;0.00;;;18.50;99.90;;;;;;5043490;28;20021;-87
2022/05/17 05:42:09;;;;;;;0.00;0.00;;;18.40;99.90;;;;;;5042844;28;20216;-85
2022/05/17 05:44:35;;;;;;;0.00;0.00;;;18.40;99.90;;;;;;5044021;28;20017;-85
2022/05/17 05:47:01;;;;;;;0.00;0.00;;;18.30;99.90;;;;;;5060313;28;20078;-84
2022/05/17 05:49:27;;;;;;;0.00;0.00;;;18.30;99.90;;;;;;5060403;28;20304;-76
2022/05/17 05:51:53;;;;;;;0.00;0.00;;;18.20;99.90;;;;;;5060864;28;20029;-79
2022/05/17 05:54:19;;;;;;;0.00;0.00;;;18.20;99.90;;;;;;5042953;28;20033;-86
2022/05/17 05:56:45;;;;;;;0.00;0.00;;;18.20;99.90;;;;;;5042489;28;20021;-85
2022/05/17 05:59:11;;;;;;;0.00;0.00;;;18.20;99.90;;;;;;5059780;28;20052;-93
2022/05/17 06:01:36;;;;;;;0.00;0.00;;;18.20;99.90;;;;;;5042979;28;20021;-85
2022/05/17 06:04:03;;;;;;;0.00;0.00;;;18.20;99.90;;;;;;5041572;28;20047;-78
2022/05/17 06:06:30;;;;;;;0.00;0.00;;;18.20;99.90;;;;;;5041887;28;20300;-84
2022/05/17 06:08:56;;;;;;;0.00;0.00;;;18.30;99.90;;;;;;5059337;28;20032;-76
2022/05/17 06:11:21;;;;;;;0.00;0.00;;;18.30;99.90;;;;;;5042391;28;20017;-84
2022/05/17 06:13:47;;;;;;;0.00;0.00;;;18.30;99.90;;;;;;5060240;28;20032;-73
2022/05/17 06:16:13;;;;;;;0.00;0.00;;;18.40;99.90;;;;;;5042816;28;20108;-82
2022/05/17 06:18:39;;;;;;;0.00;0.00;;;18.40;99.90;;;;;;5041503;28;20021;-81
2022/05/17 06:21:05;;;;;;;0.00;0.00;;;18.40;99.90;;;;;;5058611;28;20023;-86
2022/05/17 06:23:32;;;;;;;0.00;0.00;;;18.40;99.90;;;;;;5042353;28;20025;-84
2022/05/17 06:25:58;;;;;;;0.00;0.00;;;18.40;99.90;;;;;;5058949;28;20024;-75
2022/05/17 06:28:24;;;;;;;0.00;0.00;;;18.50;99.90;;;;;;5058953;28;20096;-83
2022/05/17 06:30:50;;;;;;;0.00;0.00;;;18.50;99.90;;;;;;5041159;28;20017;-85
2022/05/17 06:33:16;;;;;;;0.00;0.00;;;18.60;99.90;;;;;;5058890;28;20028;-84
2022/05/17 06:35:44;;;;;;;0.00;0.00;;;18.60;99.90;;;;;;5042169;28;20021;-85
2022/05/17 06:38:10;;;;;;;;;;;18.70;99.90;;;;;;5061089;28;20029;-84
2022/05/17 06:40:37;;;;;;;0.00;0.00;;;18.70;99.90;;;;;;5059681;28;19907;-86
2022/05/17 06:43:03;;;;;;;0.00;0.00;;;18.70;99.90;;;;;;5056986;28;20146;-85
2022/05/17 06:45:29;;;;;;;0.00;0.00;;;18.80;99.90;;;;;;5061113;28;20021;-84
2022/05/17 06:47:55;;;;;;;0.00;0.00;;;18.80;99.90;;;;;;5059088;28;20328;-80
2022/05/17 06:50:21;;;;;;;0.00;0.00;;;18.90;99.90;;;;;;5060171;28;20032;-82
2022/05/17 06:52:47;;;;;;;0.00;0.00;;;19.00;99.90;;;;;;5060123;28;20041;-77
2022/05/17 06:55:13;;;;;;;0.00;0.00;;;19.00;99.90;;;;;;5060146;28;20239;-82
2022/05/17 06:57:43;;;;;;;0.00;0.00;;;19.10;99.90;;;;;;5042317;28;20017;-81
2022/05/17 07:00:12;;;;;;;0.00;0.00;;;19.10;99.90;;;;;;5041857;28;20020;-81
2022/05/17 07:02:39;;;;;;;0.00;0.00;;;19.10;99.90;;;;;;5060087;28;20048;-76
2022/05/17 07:05:05;;;;;;;0.00;0.00;;;19.10;99.90;;;;;;5041449;28;20021;-80
2022/05/17 07:07:32;;;;;;;0.00;0.00;;;19.10;99.90;;;;;;5060913;28;20017;-85
2022/05/17 07:15:27;;;;;;;0.00;0.00;;;19.00;99.90;;;;;;5060631;28;20027;-83
2022/05/17 07:17:52;;;;;;;0.00;0.00;;;18.90;99.90;;;;;;5043489;28;20080;-86
2022/05/17 07:20:18;;;;;;;0.00;0.00;;;18.90;99.90;;;;;;5042304;28;20036;-78
2022/05/17 07:22:44;;;;;;;0.00;0.00;;;19.00;99.90;;;;;;5043572;28;20020;-86
2022/05/17 07:25:11;;;;;;;0.00;0.00;;;19.00;99.90;;;;;;5041808;28;20267;-87
2022/05/17 07:27:37;;;;;;;0.00;0.00;;;19.00;99.90;;;;;;5043323;28;20025;-88
2022/05/17 07:30:06;;;;;;;0.00;0.00;;;19.10;99.90;;;;;;5041862;28;20021;-79
2022/05/17 07:32:32;;;;;;;0.00;0.00;;;19.20;99.90;;;;;;5060736;28;20052;-86
2022/05/17 07:34:58;;;;;;;0.00;0.00;;;19.30;99.90;;;;;;5043799;28;20063;-78
2022/05/17 07:37:24;;;;;;;0.00;0.00;;;19.40;99.90;;;;;;5045778;28;20220;-79
2022/05/17 07:39:50;;;;;;;0.00;0.00;;;19.50;99.90;;;;;;5044370;28;20021;-86
2022/05/17 07:42:16;;;;;;;0.00;0.00;;;19.60;99.90;;;;;;5043052;28;20296;-83
2022/05/17 07:44:41;;;;;;;0.00;0.00;;;19.70;99.90;;;;;;5043555;28;20028;-86
2022/05/17 07:47:08;;;;;;;0.00;0.00;;;19.80;99.90;;;;;;5062845;28;20405;-74
2022/05/17 07:49:35;;;;;;;0.00;0.00;;;19.80;99.90;;;;;;5045851;28;20031;-84
2022/05/17 07:52:02;;;;;;;0.00;0.00;;;19.90;99.90;;;;;;5045456;28;20017;-81
2022/05/17 07:54:28;;;;;;;0.00;0.00;;;20.00;99.90;;;;;;5064434;28;20184;-77
2022/05/17 07:56:55;;;;;;;0.00;0.00;;;20.10;99.90;;;;;;5061713;28;20019;-76
2022/05/17 07:59:20;;;;;;;0.00;0.00;;;20.10;99.90;;;;;;5045994;28;20050;-81
2022/05/17 08:01:46;;;;;;;0.00;0.00;;;20.10;99.90;;;;;;5054613;28;20048;-74
2022/05/17 08:04:12;;;;;;;0.00;0.00;;;20.10;99.90;;;;;;5072145;28;20024;-79
2022/05/17 08:06:39;;;;;;;0.00;0.00;;;20.00;99.90;;;;;;5055399;28;20017;-76
2022/05/17 08:09:05;;;;;;;0.00;0.00;;;20.00;99.90;;;;;;5054360;28;20024;-81
2022/05/17 08:11:31;;;;;;;0.00;0.00;;;20.10;99.90;;;;;;5054050;28;20100;-78
2022/05/17 08:13:58;;;;;;;0.00;0.00;;;20.10;99.90;;;;;;5054193;28;20093;-73
2022/05/17 08:16:24;;;;;;;0.00;0.00;;;20.20;99.90;;;;;;5049372;28;20037;-85
2022/05/17 08:18:49;;;;;;;0.00;0.00;;;20.10;99.90;;;;;;5066155;28;20255;-78
2022/05/17 08:21:15;;;;;;;0.00;0.00;;;20.10;99.90;;;;;;5064070;28;20303;-86
2022/05/17 08:23:41;;;;;;;0.00;0.00;;;20.00;99.90;;;;;;5047382;28;20024;-85
2022/05/17 08:28:51;;;;;;;0.00;0.00;;;19.90;99.90;;;;;;5063330;28;20319;-84
2022/05/17 08:31:17;;;;;;;0.00;0.00;;;19.90;99.90;;;;;;5062328;28;20029;-78
2022/05/17 08:33:43;;;;;;;0.00;0.00;;;19.90;99.90;;;;;;5046879;28;20036;-88
2022/05/17 08:36:11;;;;;;;0.00;0.00;;;20.00;99.90;;;;;;5044999;28;20052;-87
2022/05/17 08:38:43;;;;;;;0.00;0.00;;;20.10;99.90;;;;;;5045237;28;20075;-85
2022/05/17 08:41:30;;;;;;;0.00;0.00;;;20.10;99.90;;;;;;5044063;28;20096;-84
2022/05/17 08:44:03;;;;;;;0.00;0.00;;;20.00;99.90;;;;;;5046053;28;20021;-75
2022/05/17 08:46:48;;;;;;;0.00;0.00;;;20.00;99.90;;;;;;5046640;28;20031;-84
2022/05/17 08:49:26;;;;;;;0.00;0.00;;;20.00;99.90;;;;;;5048347;28;20108;-83
2022/05/17 08:52:07;;;;;;;0.00;0.00;;;20.10;99.90;;;;;;5068465;28;20017;-83
2022/05/17 08:54:38;;;;;;;0.00;0.00;;;20.10;99.90;;;;;;5067921;28;20025;-80
2022/05/17 08:57:33;;;;;;;0.00;0.00;;;20.10;99.90;;;;;;5066292;28;20021;-85
2022/05/17 09:00:05;;;;;;;0.00;0.00;;;20.10;99.90;;;;;;5048330;28;20017;-77
2022/05/17 09:02:40;;;;;;;0.00;0.00;;;20.10;99.90;;;;;;5048027;28;20027;-86
2022/05/17 09:05:15;;;;;;;0.00;0.00;;;20.20;99.90;;;;;;5047131;28;20051;-79
2022/05/17 09:08:15;;;;;;;0.00;0.00;;;20.50;99.90;;;;;;5064323;28;20039;-87
2022/05/17 09:11:04;;;;;;;0.00;0.00;;;21.10;99.90;;;;;;5031918;28;20079;-86
2022/05/17 09:13:59;;;;;;;0.00;0.00;;;21.20;99.90;;;;;;5033982;28;20041;-78
2022/05/17 09:16:27;;;;;;;0.00;0.00;;;21.60;99.90;;;;;;5037518;28;20033;-86
2022/05/17 09:18:53;;;;;;;0.00;0.00;;;22.30;99.90;;;;;;5043259;28;20021;-87
2022/05/17 09:21:28;;;;;;;0.00;0.00;;;23.00;99.90;;;;;;5043573;28;20022;-84
2022/05/17 09:23:56;;;;;;;0.00;0.00;;;22.90;99.90;;;;;;5061162;28;20067;-89
2022/05/17 09:26:22;;;;;;;0.00;0.00;;;22.90;99.90;;;;;;5060772;28;20024;-79
2022/05/17 09:29:09;;;;;;;0.00;0.00;;;22.90;99.90;;;;;;5043280;28;20330;-78
2022/05/17 09:31:36;;;;;;;0.00;0.00;;;23.60;99.90;;;;;;5062105;28;20017;-86
2022/05/17 09:34:08;;;;;;;0.00;0.00;;;24.10;99.90;;;;;;5062895;28;20351;-77
2022/05/17 09:37:08;;;;;;;0.00;0.00;;;24.90;99.60;;;;;;5062728;28;20289;-84
2022/05/17 09:39:34;;;;;;;0.00;0.00;;;24.60;97.30;;;;;;5032109;28;20108;-82
2022/05/17 09:42:06;;;;;;;0.00;0.00;;;24.20;97.80;;;;;;5059978;28;20304;-79
2022/05/17 09:44:33;;;;;;;0.00;0.00;;;23.60;98.80;;;;;;5059882;28;20092;-78
2022/05/17 09:47:05;;;;;;;0.00;0.00;;;23.30;99.40;;;;;;5060816;28;20111;-76
2022/05/17 09:52:32;;;;;;;0.00;0.00;;;22.50;99.90;;;;;;5065104;28;20074;-84
2022/05/17 09:55:25;;;;;;;0.00;0.00;;;22.20;99.90;;;;;;5067205;28;20025;-75
2022/05/17 09:57:52;;;;;;;0.00;0.00;;;21.80;99.90;;;;;;5036851;28;20071;-87
2022/05/17 10:00:24;;;;;;;0.00;0.00;;;21.50;99.90;;;;;;5061519;28;20023;-83
2022/05/17 10:03:04;;;;;;;0.00;0.00;;;21.30;99.90;;;;;;5062613;28;20028;-79
2022/05/17 10:05:43;;;;;;;0.00;0.00;;;21.00;99.90;;;;;;5043187;28;20021;-87
2022/05/17 10:08:15;;;;;;;0.00;0.00;;;20.70;99.90;;;;;;5042915;28;20024;-80
2022/05/17 10:10:44;;;;;;;0.00;0.00;;;20.50;99.90;;;;;;5061314;28;20041;-85
2022/05/17 10:13:38;;;;;;;0.00;0.00;;;20.40;99.90;;;;;;5042727;28;20028;-87
2022/05/17 10:16:11;;;;;;;0.00;0.00;;;20.20;99.90;;;;;;5042878;28;20031;-87
2022/05/17 10:18:54;;;;;;;0.00;0.00;;;20.30;99.90;;;;;;5062005;28;20025;-83
2022/05/17 10:21:29;;;;;;;0.00;0.00;;;20.70;99.90;;;;;;5042334;28;20025;-87
2022/05/17 10:23:58;;;;;;;0.00;0.00;;;21.80;99.90;;;;;;5043551;28;20035;-87
2022/05/17 10:26:33;;;;;;;0.00;0.00;;;22.20;99.90;;;;;;5043517;28;20032;-85
2022/05/17 10:29:16;;;;;;;0.00;0.00;;;22.50;99.90;;;;;;5060823;28;20036;-80
2022/05/17 10:31:58;;;;;;;0.00;0.00;;;22.60;99.90;;;;;;5043401;28;20024;-77
2022/05/17 10:34:44;;;;;;;0.00;0.00;;;22.60;99.90;;;;;;5043185;28;20088;-78
2022/05/17 10:37:18;;;;;;;0.00;0.00;;;22.30;99.90;;;;;;5060697;28;20021;-85
2022/05/17 10:39:52;;;;;;;0.00;0.00;;;21.90;99.90;;;;;;5060503;28;20017;-87
2022/05/17 10:42:20;;;;;;;0.00;0.00;;;21.50;99.90;;;;;;5059081;28;20213;-80
2022/05/17 10:44:53;;;;;;;0.00;0.00;;;21.20;99.90;;;;;;5043146;28;20021;-82
2022/05/17 10:47:32;;;;;;;0.00;0.00;;;21.10;99.90;;;;;;5042875;28;20363;-86
2022/05/17 10:50:37;;;;;;;0.00;0.00;;;21.00;99.90;;;;;;5038959;28;20024;-77
2022/05/17 10:53:44;;;;;;;0.00;0.00;;;20.90;99.90;;;;;;5057578;28;20124;-87
2022/05/17 10:56:19;;;;;;;0.00;0.00;;;21.00;99.90;;;;;;5078199;28;20356;-84
2022/05/17 10:59:09;;;;;;;0.00;0.00;;;20.90;99.90;;;;;;5080933;28;20046;-90
2022/05/17 11:01:37;;;;;;;0.00;0.00;;;20.80;99.90;;;;;;5083060;28;20112;-79
2022/05/17 11:07:16;;;;;;;0.00;0.00;;;20.50;99.90;;;;;;5082029;28;20031;-79
2022/05/17 11:09:48;;;;;;;0.00;0.00;;;20.30;99.90;;;;;;5079221;28;20054;-83
2022/05/17 11:12:17;;;;;;;0.00;0.00;;;20.20;99.90;;;;;;5080233;28;20095;-78
2022/05/17 11:14:54;;;;;;;0.00;0.00;;;20.10;99.90;;;;;;5078260;28;20038;-82
2022/05/17 11:17:44;;;;;;;0.00;0.00;;;20.00;99.90;;;;;;5079751;28;20024;-84
2022/05/17 11:20:28;;;;;;;0.00;0.00;;;19.90;99.90;;;;;;5084027;28;20020;-85
2022/05/17 11:23:20;;;;;;;0.00;0.00;;;19.90;99.90;;;;;;5082349;28;20028;-84
2022/05/17 11:26:23;;;;;;;0.00;0.00;;;19.80;99.90;;;;;;5081740;28;20183;-87
2022/05/17 11:29:00;;;;;;;0.00;0.00;;;19.70;99.90;;;;;;5081227;28;20039;-79
2022/05/17 11:31:29;;;;;;;0.00;0.00;;;19.60;99.90;;;;;;5080560;28;20012;-89
2022/05/17 11:34:26;;;;;;;0.00;0.00;;;19.50;99.90;;;;;;5081187;28;20044;-82
2022/05/17 11:36:55;;;;;;;0.00;0.00;;;19.50;99.90;;;;;;5088488;28;20024;-83
2022/05/17 11:39:46;;;;;;;0.00;0.00;;;19.60;99.90;;;;;;5089374;28;20182;-83
2022/05/17 11:42:35;;;;;;;0.00;0.00;;;19.70;99.90;;;;;;5086242;28;20107;-85
2022/05/17 11:45:18;;;;;;;0.00;0.00;;;20.00;99.90;;;;;;5084889;28;20099;-86
2022/05/17 11:47:44;;;;;;;0.00;0.00;;;20.40;99.90;;;;;;5092235;28;20284;-80
2022/05/17 11:50:42;;;;;;;0.00;0.00;;;20.60;99.90;;;;;;5090544;28;20016;-80
2022/05/17 11:53:23;;;;;;;0.00;0.00;;;20.70;99.90;;;;;;5088401;28;20047;-82
2022/05/17 11:56:20;;;;;;;0.00;0.00;;;20.80;99.90;;;;;;5083404;28;20032;-78
2022/05/17 11:58:49;;;;;;;0.00;0.00;;;20.90;99.90;;;;;;5061597;28;20032;-82
2022/05/17 12:01:31;;;;;;;0.00;0.00;;;21.00;99.90;;;;;;5083066;28;20295;-82
2022/05/17 12:04:02;;;;;;;0.00;0.00;;;21.10;99.90;;;;;;5084037;28;20024;-86
2022/05/17 12:07:04;;;;;;;0.00;0.00;;;21.20;99.90;;;;;;5082670;28;20104;-75
2022/05/17 12:09:31;;;;;;;0.00;0.00;;;21.20;99.90;;;;;;5084316;28;20020;-84
2022/05/17 12:12:16;;;;;;;0.00;0.00;;;21.10;99.90;;;;;;5083376;28;20028;-77
2022/05/17 12:15:06;;;;;;;0.00;0.00;;;21.20;99.90;;;;;;5083182;28;20063;-83
2022/05/17 12:17:44;;;;;;;0.00;0.00;;;21.20;99.90;;;;;;5073433;28;20029;-81
2022/05/17 12:20:25;;;;;;;;;;;21.10;99.90;;;;;;5082421;28;20032;-81
2022/05/17 12:23:00;;;;;;;0.00;0.00;;;21.10;99.90;;;;;;5083085;28;19901;-82
2022/05/17 12:25:46;;;;;;;0.00;0.00;;;21.10;99.90;;;;;;5082849;28;20039;-75
2022/05/17 12:28:20;;;;;;;0.00;0.00;;;21.00;99.90;;;;;;5082335;28;20083;-84
2022/05/17 12:30:53;;;;;;;0.00;0.00;;;21.10;99.90;;;;;;5082231;28;20016;-82
2022/05/17 12:33:20;;;;;;;0.00;0.00;;;21.10;99.90;;;;;;5080243;28;20280;-82
2022/05/17 12:35:47;;;;;;;0.00;0.00;;;21.20;99.90;;;;;;5081911;28;20028;-82
2022/05/17 12:44:16;;;;;;;0.00;0.00;;;21.30;99.90;;;;;;5081146;28;20015;-83
2022/05/17 12:46:45;;;;;;;0.00;0.00;;;21.30;99.90;;;;;;5079866;28;20159;-81
2022/05/17 12:49:17;;;;;;;0.00;0.00;;;21.20;99.90;;;;;;5081829;28;20040;-78
2022/05/17 12:51:50;;;;;;;0.00;0.00;;;21.20;99.90;;;;;;5080638;28;20050;-83
2022/05/17 12:54:21;;;;;;;0.00;0.00;;;21.20;99.90;;;;;;5079856;28;20116;-82
2022/05/17 12:56:47;;;;;;;0.00;0.00;;;21.20;99.90;;;;;;5081947;28;20029;-83
2022/05/17 12:59:22;;;;;;;0.00;0.00;;;21.20;99.90;;;;;;5080661;28;20036;-85
2022/05/17 13:01:59;;;;;;;0.00;0.00;;;21.30;99.90;;;;;;5081902;28;20016;-81
2022/05/17 13:04:28;;;;;;;;;;;21.40;99.90;;;;;;5082665;28;20084;-84
2022/05/17 13:07:22;;;;;;;0.00;0.00;;;21.40;99.90;;;;;;5082103;28;20176;-85
2022/05/17 13:10:04;;;;;;;0.00;0.00;;;21.50;99.90;;;;;;5082104;28;20043;-78
2022/05/17 13:12:37;;;;;;;0.00;0.00;;;21.40;99.90;;;;;;5081140;28;20215;-85
2022/05/17 13:15:07;;;;;;;0.00;0.00;;;21.40;99.90;;;;;;5081763;28;20012;-84
2022/05/17 13:17:39;;;;;;;0.00;0.00;;;21.40;99.90;;;;;;5082516;28;20083;-78
2022/05/17 13:20:20;;;;;;;0.00;0.00;;;21.50;99.90;;;;;;5082099;28;20063;-83
2022/05/17 13:22:51;;;;;;;0.00;0.00;;;21.40;99.90;;;;;;5081067;28;20121;-81
2022/05/17 13:25:26;;;;;;;0.00;0.00;;;21.40;99.90;;;;;;5082001;28;20040;-73
2022/05/17 13:27:54;;;;;;;0.00;0.00;;;21.30;99.90;;;;;;5081885;28;20021;-84